sensor_id;sensor_type;location;lat;lon;timestamp;pressure;altitude;pressure_sealevel;temperature;humidity
73860;BME280;62197;51.632;13.700;2024-03-25T00:00:59;98606.06;;;4.20;99.50
73860;BME280;62197;51.632;13.700;2024-03-25T00:03:24;98597.44;;;4.19;98.64
73860;BME280;62197;51.632;13.700;2024-03-25T00:05:49;98598.13;;;4.21;98.52
73860;BME280;62197;51.632;13.700;2024-03-25T00:08:15;98612.09;;;4.20;97.99
73860;BME280;62197;51.632;13.700;2024-03-25T00:10:40;98632.78;;;4.22;98.76
73860;BME280;62197;51.632;13.700;2024-03-25T00:13:05;98622.25;;;4.14;99.31
73860;BME280;62197;51.632;13.700;2024-03-25T00:15:31;98605.81;;;4.04;100.00
73860;BME280;62197;51.632;13.700;2024-03-25T00:17:56;98618.66;;;3.95;100.00
73860;BME280;62197;51.632;13.700;2024-03-25T00:20:21;98610.97;;;3.94;100.00
73860;BME280;62197;51.632;13.700;2024-03-25T00:22:47;98617.97;;;3.93;100.00
73860;BME280;62197;51.632;13.700;2024-03-25T00:25:12;98620.41;;;3.95;100.00
73860;BME280;62197;51.632;13.700;2024-03-25T00:27:37;98610.03;;;3.95;100.00
73860;BME280;62197;51.632;13.700;2024-03-25T00:30:03;98613.88;;;4.01;100.00
73860;BME280;62197;51.632;13.700;2024-03-25T00:32:30;98616.91;;;4.06;100.00
73860;BME280;62197;51.632;13.700;2024-03-25T00:34:55;98620.72;;;4.02;100.00
73860;BME280;62197;51.632;13.700;2024-03-25T00:37:20;98628.53;;;4.02;100.00
73860;BME280;62197;51.632;13.700;2024-03-25T00:39:46;98629.88;;;3.96;100.00
73860;BME280;62197;51.632;13.700;2024-03-25T00:42:11;98634.94;;;3.97;100.00
73860;BME280;62197;51.632;13.700;2024-03-25T00:44:37;98634.00;;;3.98;100.00
73860;BME280;62197;51.632;13.700;2024-03-25T00:47:02;98627.13;;;3.97;100.00
73860;BME280;62197;51.632;13.700;2024-03-25T00:49:28;98627.13;;;3.97;100.00
73860;BME280;62197;51.632;13.700;2024-03-25T00:51:53;98627.13;;;3.97;100.00
73860;BME280;62197;51.632;13.700;2024-03-25T00:54:18;98628.78;;;3.98;100.00
73860;BME280;62197;51.632;13.700;2024-03-25T00:56:44;98629.88;;;3.96;100.00
73860;BME280;62197;51.632;13.700;2024-03-25T00:59:09;98635.09;;;4.06;100.00
73860;BME280;62197;51.632;13.700;2024-03-25T01:01:35;98626.78;;;4.12;100.00
73860;BME280;62197;51.632;13.700;2024-03-25T01:04:03;98637.16;;;4.02;100.00
73860;BME280;62197;51.632;13.700;2024-03-25T01:06:29;98624.53;;;3.97;100.00
73860;BME280;62197;51.632;13.700;2024-03-25T01:08:54;98639.19;;;3.98;100.00
73860;BME280;62197;51.632;13.700;2024-03-25T01:11:20;98639.31;;;3.97;100.00
73860;BME280;62197;51.632;13.700;2024-03-25T01:13:46;98631.66;;;3.95;100.00
73860;BME280;62197;51.632;13.700;2024-03-25T01:16:12;98641.22;;;3.95;100.00
73860;BME280;62197;51.632;13.700;2024-03-25T01:18:37;98644.66;;;3.95;100.00
73860;BME280;62197;51.632;13.700;2024-03-25T01:21:03;98646.56;;;3.93;100.00
73860;BME280;62197;51.632;13.700;2024-03-25T01:23:28;98637.53;;;3.97;100.00
73860;BME280;62197;51.632;13.700;2024-03-25T01:25:54;98636.47;;;4.00;100.00
73860;BME280;62197;51.632;13.700;2024-03-25T01:28:19;98646.16;;;3.98;100.00
73860;BME280;62197;51.632;13.700;2024-03-25T01:30:45;98646.03;;;3.99;100.00
73860;BME280;62197;51.632;13.700;2024-03-25T01:33:10;98641.78;;;3.98;100.00
73860;BME280;62197;51.632;13.700;2024-03-25T01:35:36;98646.44;;;3.95;100.00
73860;BME280;62197;51.632;13.700;2024-03-25T01:38:01;98643.16;;;4.03;100.00
73860;BME280;62197;51.632;13.700;2024-03-25T01:40:28;98654.84;;;4.08;100.00
73860;BME280;62197;51.632;13.700;2024-03-25T01:43:01;98659.47;;;4.05;99.71
73860;BME280;62197;51.632;13.700;2024-03-25T01:45:32;98652.63;;;4.04;99.63
73860;BME280;62197;51.632;13.700;2024-03-25T01:47:59;98661.94;;;4.06;100.00
73860;BME280;62197;51.632;13.700;2024-03-25T01:50:26;98667.66;;;4.00;100.00
73860;BME280;62197;51.632;13.700;2024-03-25T01:52:51;98669.06;;;4.04;100.00
73860;BME280;62197;51.632;13.700;2024-03-25T01:55:21;98676.47;;;4.09;100.00
73860;BME280;62197;51.632;13.700;2024-03-25T01:57:49;98658.78;;;4.03;100.00
73860;BME280;62197;51.632;13.700;2024-03-25T02:00:15;98671.25;;;4.09;100.00
73860;BME280;62197;51.632;13.700;2024-03-25T02:02:42;98674.81;;;4.08;100.00
73860;BME280;62197;51.632;13.700;2024-03-25T02:05:16;98679.47;;;4.04;100.00
73860;BME280;62197;51.632;13.700;2024-03-25T02:07:43;98677.25;;;3.99;100.00
73860;BME280;62197;51.632;13.700;2024-03-25T02:10:08;98682.97;;;3.93;100.00
73860;BME280;62197;51.632;13.700;2024-03-25T02:12:41;98679.44;;;3.94;100.00
73860;BME280;62197;51.632;13.700;2024-03-25T02:15:07;98682.84;;;3.95;100.00
73860;BME280;62197;51.632;13.700;2024-03-25T02:17:33;98686.53;;;3.92;100.00
73860;BME280;62197;51.632;13.700;2024-03-25T02:19:58;98695.72;;;3.96;100.00
73860;BME280;62197;51.632;13.700;2024-03-25T02:22:24;98689.56;;;3.97;100.00
73860;BME280;62197;51.632;13.700;2024-03-25T02:24:51;98694.66;;;3.99;100.00
73860;BME280;62197;51.632;13.700;2024-03-25T02:27:17;98701.66;;;4.08;100.00
73860;BME280;62197;51.632;13.700;2024-03-25T02:29:43;98697.94;;;4.01;100.00
73860;BME280;62197;51.632;13.700;2024-03-25T02:32:09;98692.59;;;4.03;100.00
73860;BME280;62197;51.632;13.700;2024-03-25T02:34:39;98700.41;;;4.03;100.00
73860;BME280;62197;51.632;13.700;2024-03-25T02:37:06;98704.66;;;4.04;100.00
73860;BME280;62197;51.632;13.700;2024-03-25T02:39:32;98698.63;;;4.03;100.00
73860;BME280;62197;51.632;13.700;2024-03-25T02:41:58;98711.25;;;4.08;100.00
73860;BME280;62197;51.632;13.700;2024-03-25T02:44:24;98710.41;;;4.07;100.00
73860;BME280;62197;51.632;13.700;2024-03-25T02:46:49;98714.28;;;4.13;100.00
73860;BME280;62197;51.632;13.700;2024-03-25T02:49:14;98721.13;;;4.14;100.00
73860;BME280;62197;51.632;13.700;2024-03-25T02:51:40;98729.06;;;4.12;100.00
73860;BME280;62197;51.632;13.700;2024-03-25T02:54:05;98728.09;;;4.13;100.00
73860;BME280;62197;51.632;13.700;2024-03-25T02:56:31;98723.59;;;4.15;100.00
73860;BME280;62197;51.632;13.700;2024-03-25T02:58:56;98740.28;;;4.13;100.00
73860;BME280;62197;51.632;13.700;2024-03-25T03:01:21;98741.13;;;4.13;100.00
73860;BME280;62197;51.632;13.700;2024-03-25T03:03:46;98749.88;;;4.12;100.00
73860;BME280;62197;51.632;13.700;2024-03-25T03:06:12;98749.06;;;4.12;100.00
73860;BME280;62197;51.632;13.700;2024-03-25T03:08:37;98740.56;;;4.10;100.00
73860;BME280;62197;51.632;13.700;2024-03-25T03:11:02;98747.41;;;4.11;100.00
73860;BME280;62197;51.632;13.700;2024-03-25T03:13:28;98753.56;;;4.10;100.00
73860;BME280;62197;51.632;13.700;2024-03-25T03:15:53;98739.47;;;4.12;100.00
73860;BME280;62197;51.632;13.700;2024-03-25T03:18:18;98754.66;;;4.07;100.00
73860;BME280;62197;51.632;13.700;2024-03-25T03:20:43;98754.09;;;4.04;100.00
73860;BME280;62197;51.632;13.700;2024-03-25T03:23:09;98757.38;;;4.06;100.00
73860;BME280;62197;51.632;13.700;2024-03-25T03:25:34;98759.59;;;4.10;100.00
73860;BME280;62197;51.632;13.700;2024-03-25T03:28:00;98764.78;;;4.10;100.00
73860;BME280;62197;51.632;13.700;2024-03-25T03:30:25;98762.19;;;4.10;100.00
73860;BME280;62197;51.632;13.700;2024-03-25T03:32:50;98766.56;;;4.10;100.00
73860;BME280;62197;51.632;13.700;2024-03-25T03:35:16;98764.50;;;4.04;100.00
73860;BME280;62197;51.632;13.700;2024-03-25T03:37:41;98764.06;;;3.98;100.00
73860;BME280;62197;51.632;13.700;2024-03-25T03:40:07;98767.59;;;3.97;100.00
73860;BME280;62197;51.632;13.700;2024-03-25T03:42:33;98778.28;;;3.94;100.00
73860;BME280;62197;51.632;13.700;2024-03-25T03:44:58;98773.75;;;3.96;100.00
73860;BME280;62197;51.632;13.700;2024-03-25T03:47:24;98778.16;;;3.96;100.00
73860;BME280;62197;51.632;13.700;2024-03-25T03:49:49;98779.41;;;4.02;100.00
73860;BME280;62197;51.632;13.700;2024-03-25T03:52:14;98785.44;;;4.02;100.00
73860;BME280;62197;51.632;13.700;2024-03-25T03:54:39;98776.53;;;4.05;100.00
73860;BME280;62197;51.632;13.700;2024-03-25T03:57:05;98782.19;;;4.10;100.00
73860;BME280;62197;51.632;13.700;2024-03-25T03:59:30;98788.47;;;4.07;100.00
73860;BME280;62197;51.632;13.700;2024-03-25T04:01:56;98796.97;;;4.09;100.00
73860;BME280;62197;51.632;13.700;2024-03-25T04:04:21;98793.69;;;4.07;100.00
73860;BME280;62197;51.632;13.700;2024-03-25T04:06:46;98799.00;;;4.06;100.00
73860;BME280;62197;51.632;13.700;2024-03-25T04:09:11;98796.16;;;4.09;100.00
73860;BME280;62197;51.632;13.700;2024-03-25T04:11:38;98788.22;;;4.10;100.00
73860;BME280;62197;51.632;13.700;2024-03-25T04:14:04;98804.91;;;4.08;100.00
73860;BME280;62197;51.632;13.700;2024-03-25T04:16:29;98803.38;;;4.05;100.00
73860;BME280;62197;51.632;13.700;2024-03-25T04:18:56;98820.78;;;4.05;100.00
73860;BME280;62197;51.632;13.700;2024-03-25T04:21:22;98818.19;;;4.05;100.00
73860;BME280;62197;51.632;13.700;2024-03-25T04:23:47;98817.22;;;4.06;100.00
73860;BME280;62197;51.632;13.700;2024-03-25T04:26:14;98830.22;;;4.06;100.00
73860;BME280;62197;51.632;13.700;2024-03-25T04:28:40;98822.59;;;4.14;99.20
73860;BME280;62197;51.632;13.700;2024-03-25T04:31:07;98832.13;;;4.04;98.66
73860;BME280;62197;51.632;13.700;2024-03-25T04:33:33;98846.66;;;4.06;98.74
73860;BME280;62197;51.632;13.700;2024-03-25T04:35:58;98844.88;;;4.07;98.00
73860;BME280;62197;51.632;13.700;2024-03-25T04:38:24;98840.25;;;4.10;97.75
73860;BME280;62197;51.632;13.700;2024-03-25T04:40:49;98841.72;;;4.03;97.28
73860;BME280;62197;51.632;13.700;2024-03-25T04:43:15;98857.19;;;4.05;96.71
73860;BME280;62197;51.632;13.700;2024-03-25T04:45:40;98869.50;;;4.03;97.08
73860;BME280;62197;51.632;13.700;2024-03-25T04:48:06;98863.94;;;4.07;97.12
73860;BME280;62197;51.632;13.700;2024-03-25T04:50:33;98871.41;;;4.01;97.59
73860;BME280;62197;51.632;13.700;2024-03-25T04:52:58;98875.28;;;4.06;96.56
73860;BME280;62197;51.632;13.700;2024-03-25T04:55:23;98879.66;;;4.06;96.02
73860;BME280;62197;51.632;13.700;2024-03-25T04:57:49;98876.09;;;4.07;95.46
73860;BME280;62197;51.632;13.700;2024-03-25T05:00:14;98887.34;;;4.07;95.30
73860;BME280;62197;51.632;13.700;2024-03-25T05:02:39;98886.00;;;4.13;95.34
73860;BME280;62197;51.632;13.700;2024-03-25T05:05:05;98888.03;;;4.09;94.93
73860;BME280;62197;51.632;13.700;2024-03-25T05:07:32;98894.44;;;4.05;95.34
73860;BME280;62197;51.632;13.700;2024-03-25T05:09:57;98894.31;;;4.07;95.91
73860;BME280;62197;51.632;13.700;2024-03-25T05:12:22;98887.47;;;4.06;95.45
73860;BME280;62197;51.632;13.700;2024-03-25T05:14:48;98891.97;;;4.04;95.54
73860;BME280;62197;51.632;13.700;2024-03-25T05:17:13;98909.34;;;4.03;95.89
73860;BME280;62197;51.632;13.700;2024-03-25T05:19:38;98903.78;;;4.08;96.53
73860;BME280;62197;51.632;13.700;2024-03-25T05:22:04;98908.03;;;4.09;96.15
73860;BME280;62197;51.632;13.700;2024-03-25T05:24:29;98908.28;;;4.06;95.55
73860;BME280;62197;51.632;13.700;2024-03-25T05:26:54;98922.13;;;4.06;96.24
73860;BME280;62197;51.632;13.700;2024-03-25T05:29:19;98922.97;;;4.16;95.88
73860;BME280;62197;51.632;13.700;2024-03-25T05:32:00;98922.84;;;4.18;95.58
73860;BME280;62197;51.632;13.700;2024-03-25T05:34:27;98932.84;;;4.13;95.78
73860;BME280;62197;51.632;13.700;2024-03-25T05:36:52;98933.66;;;4.13;95.76
73860;BME280;62197;51.632;13.700;2024-03-25T05:39:18;98935.31;;;4.14;95.60
73860;BME280;62197;51.632;13.700;2024-03-25T05:41:44;98935.88;;;4.18;95.74
73860;BME280;62197;51.632;13.700;2024-03-25T05:44:09;98937.09;;;4.14;94.49
73860;BME280;62197;51.632;13.700;2024-03-25T05:46:34;98944.91;;;4.14;94.83
73860;BME280;62197;51.632;13.700;2024-03-25T05:49:03;98946.72;;;4.23;94.42
73860;BME280;62197;51.632;13.700;2024-03-25T05:51:30;98954.66;;;4.21;94.47
73860;BME280;62197;51.632;13.700;2024-03-25T05:53:55;98955.09;;;4.26;94.44
73860;BME280;62197;51.632;13.700;2024-03-25T05:56:21;98955.03;;;4.17;95.34
73860;BME280;62197;51.632;13.700;2024-03-25T05:58:46;98959.28;;;4.18;95.14
73860;BME280;62197;51.632;13.700;2024-03-25T06:01:12;98967.88;;;4.09;95.54
73860;BME280;62197;51.632;13.700;2024-03-25T06:03:37;98966.72;;;4.02;96.46
73860;BME280;62197;51.632;13.700;2024-03-25T06:06:02;98973.81;;;3.99;96.24
73860;BME280;62197;51.632;13.700;2024-03-25T06:08:28;98977.50;;;3.97;96.91
73860;BME280;62197;51.632;13.700;2024-03-25T06:10:54;98981.50;;;4.01;97.09
73860;BME280;62197;51.632;13.700;2024-03-25T06:13:20;98977.25;;;4.00;96.52
73860;BME280;62197;51.632;13.700;2024-03-25T06:15:46;98984.34;;;3.98;97.36
73860;BME280;62197;51.632;13.700;2024-03-25T06:18:11;98993.69;;;4.01;96.73
73860;BME280;62197;51.632;13.700;2024-03-25T06:20:37;98992.75;;;4.02;96.75
73860;BME280;62197;51.632;13.700;2024-03-25T06:23:02;98992.28;;;3.96;97.42
73860;BME280;62197;51.632;13.700;2024-03-25T06:25:28;99002.56;;;3.98;96.93
73860;BME280;62197;51.632;13.700;2024-03-25T06:27:54;99006.31;;;4.05;97.40
73860;BME280;62197;51.632;13.700;2024-03-25T06:30:19;99010.94;;;4.02;97.22
73860;BME280;62197;51.632;13.700;2024-03-25T06:33:03;99010.34;;;4.09;97.33
73860;BME280;62197;51.632;13.700;2024-03-25T06:35:47;99015.88;;;4.16;97.55
73860;BME280;62197;51.632;13.700;2024-03-25T06:38:12;99030.31;;;4.09;96.63
73860;BME280;62197;51.632;13.700;2024-03-25T06:40:37;99025.13;;;4.09;96.60
73860;BME280;62197;51.632;13.700;2024-03-25T06:43:03;99023.47;;;4.08;95.83
73860;BME280;62197;51.632;13.700;2024-03-25T06:45:29;99038.00;;;4.10;95.91
73860;BME280;62197;51.632;13.700;2024-03-25T06:47:54;99034.34;;;4.13;96.12
73860;BME280;62197;51.632;13.700;2024-03-25T06:50:20;99039.00;;;4.19;96.67
73860;BME280;62197;51.632;13.700;2024-03-25T06:52:45;99041.72;;;4.17;96.55
73860;BME280;62197;51.632;13.700;2024-03-25T06:55:10;99044.09;;;4.20;95.94
73860;BME280;62197;51.632;13.700;2024-03-25T06:57:35;99053.44;;;4.23;96.42
73860;BME280;62197;51.632;13.700;2024-03-25T07:00:01;99051.78;;;4.22;95.89
73860;BME280;62197;51.632;13.700;2024-03-25T07:02:26;99052.22;;;4.27;94.02
73860;BME280;62197;51.632;13.700;2024-03-25T07:04:51;99050.78;;;4.34;94.05
73860;BME280;62197;51.632;13.700;2024-03-25T07:07:17;99051.63;;;4.35;93.35
73860;BME280;62197;51.632;13.700;2024-03-25T07:09:42;99050.53;;;4.37;92.75
73860;BME280;62197;51.632;13.700;2024-03-25T07:12:08;99068.50;;;4.40;92.38
73860;BME280;62197;51.632;13.700;2024-03-25T07:14:33;99077.03;;;4.42;92.61
73860;BME280;62197;51.632;13.700;2024-03-25T07:16:58;99069.91;;;4.44;92.78
73860;BME280;62197;51.632;13.700;2024-03-25T07:19:24;99081.38;;;4.53;92.49
73860;BME280;62197;51.632;13.700;2024-03-25T07:21:49;99079.84;;;4.50;92.32
73860;BME280;62197;51.632;13.700;2024-03-25T07:24:15;99075.84;;;4.46;91.63
73860;BME280;62197;51.632;13.700;2024-03-25T07:26:40;99088.09;;;4.55;91.50
73860;BME280;62197;51.632;13.700;2024-03-25T07:29:05;99083.25;;;4.72;90.77
73860;BME280;62197;51.632;13.700;2024-03-25T07:31:31;99083.28;;;4.92;90.58
73860;BME280;62197;51.632;13.700;2024-03-25T07:33:56;99088.09;;;4.97;90.23
73860;BME280;62197;51.632;13.700;2024-03-25T07:36:21;99089.75;;;5.19;89.14
73860;BME280;62197;51.632;13.700;2024-03-25T07:38:47;99098.22;;;5.11;88.18
73860;BME280;62197;51.632;13.700;2024-03-25T07:41:12;99098.53;;;5.18;88.37
73860;BME280;62197;51.632;13.700;2024-03-25T07:43:38;99096.31;;;5.23;87.77
73860;BME280;62197;51.632;13.700;2024-03-25T07:46:03;99100.72;;;5.22;87.92
73860;BME280;62197;51.632;13.700;2024-03-25T07:48:28;99108.66;;;5.21;89.39
73860;BME280;62197;51.632;13.700;2024-03-25T07:50:54;99103.75;;;5.18;87.85
73860;BME280;62197;51.632;13.700;2024-03-25T07:53:19;99114.34;;;5.05;87.15
73860;BME280;62197;51.632;13.700;2024-03-25T07:55:44;99115.72;;;5.60;86.86
73860;BME280;62197;51.632;13.700;2024-03-25T07:58:10;99115.34;;;5.35;86.80
73860;BME280;62197;51.632;13.700;2024-03-25T08:00:35;99111.50;;;5.39;86.30
73860;BME280;62197;51.632;13.700;2024-03-25T08:03:00;99117.78;;;5.57;88.14
73860;BME280;62197;51.632;13.700;2024-03-25T08:05:26;99121.94;;;5.69;85.69
73860;BME280;62197;51.632;13.700;2024-03-25T08:07:51;99117.81;;;5.36;85.91
73860;BME280;62197;51.632;13.700;2024-03-25T08:10:17;99122.91;;;5.38;87.00
73860;BME280;62197;51.632;13.700;2024-03-25T08:12:42;99129.75;;;5.59;84.79
73860;BME280;62197;51.632;13.700;2024-03-25T08:15:07;99135.38;;;5.64;85.92
73860;BME280;62197;51.632;13.700;2024-03-25T08:17:33;99135.44;;;6.14;87.78
73860;BME280;62197;51.632;13.700;2024-03-25T08:19:58;99131.50;;;5.89;84.49
73860;BME280;62197;51.632;13.700;2024-03-25T08:22:24;99141.19;;;5.78;85.21
73860;BME280;62197;51.632;13.700;2024-03-25T08:24:49;99140.31;;;5.58;84.93
73860;BME280;62197;51.632;13.700;2024-03-25T08:27:14;99148.19;;;5.77;83.96
73860;BME280;62197;51.632;13.700;2024-03-25T08:29:40;99149.31;;;6.24;83.80
73860;BME280;62197;51.632;13.700;2024-03-25T08:32:06;99154.34;;;5.76;84.00
73860;BME280;62197;51.632;13.700;2024-03-25T08:34:31;99146.97;;;6.12;83.52
73860;BME280;62197;51.632;13.700;2024-03-25T08:36:56;99148.38;;;7.12;84.47
73860;BME280;62197;51.632;13.700;2024-03-25T08:39:21;99154.16;;;6.48;81.81
73860;BME280;62197;51.632;13.700;2024-03-25T08:41:47;99153.34;;;6.38;81.13
73860;BME280;62197;51.632;13.700;2024-03-25T08:44:12;99151.94;;;6.15;82.94
73860;BME280;62197;51.632;13.700;2024-03-25T08:46:38;99158.78;;;5.85;83.67
73860;BME280;62197;51.632;13.700;2024-03-25T08:49:04;99162.88;;;5.78;84.23
73860;BME280;62197;51.632;13.700;2024-03-25T08:51:29;99161.94;;;5.79;83.70
73860;BME280;62197;51.632;13.700;2024-03-25T08:53:54;99172.09;;;5.82;83.56
73860;BME280;62197;51.632;13.700;2024-03-25T08:56:20;99175.41;;;5.84;84.11
73860;BME280;62197;51.632;13.700;2024-03-25T08:58:45;99179.06;;;5.93;84.26
73860;BME280;62197;51.632;13.700;2024-03-25T09:01:10;99168.97;;;6.19;84.29
73860;BME280;62197;51.632;13.700;2024-03-25T09:03:39;99169.97;;;6.37;83.56
73860;BME280;62197;51.632;13.700;2024-03-25T09:06:05;99170.13;;;6.45;82.70
73860;BME280;62197;51.632;13.700;2024-03-25T09:08:30;99175.75;;;6.50;82.55
73860;BME280;62197;51.632;13.700;2024-03-25T09:11:02;99174.84;;;6.71;81.34
73860;BME280;62197;51.632;13.700;2024-03-25T09:13:32;99176.72;;;6.78;79.91
73860;BME280;62197;51.632;13.700;2024-03-25T09:15:57;99174.25;;;6.96;80.23
73860;BME280;62197;51.632;13.700;2024-03-25T09:18:23;99184.59;;;6.88;80.97
73860;BME280;62197;51.632;13.700;2024-03-25T09:20:48;99199.56;;;6.86;79.09
73860;BME280;62197;51.632;13.700;2024-03-25T09:23:14;99206.59;;;6.85;80.59
73860;BME280;62197;51.632;13.700;2024-03-25T09:25:39;99197.38;;;6.91;78.69
73860;BME280;62197;51.632;13.700;2024-03-25T09:28:04;99211.41;;;6.61;79.70
73860;BME280;62197;51.632;13.700;2024-03-25T09:30:31;99202.19;;;6.57;80.17
73860;BME280;62197;51.632;13.700;2024-03-25T09:32:57;99216.06;;;6.57;80.01
73860;BME280;62197;51.632;13.700;2024-03-25T09:35:22;99219.00;;;6.24;80.80
73860;BME280;62197;51.632;13.700;2024-03-25T09:37:47;99220.44;;;6.47;81.51
73860;BME280;62197;51.632;13.700;2024-03-25T09:40:13;99224.47;;;6.61;80.73
73860;BME280;62197;51.632;13.700;2024-03-25T09:42:48;99228.94;;;6.40;80.09
73860;BME280;62197;51.632;13.700;2024-03-25T09:45:17;99225.69;;;6.57;81.05
73860;BME280;62197;51.632;13.700;2024-03-25T09:47:46;99234.53;;;6.75;79.21
73860;BME280;62197;51.632;13.700;2024-03-25T09:50:13;99233.56;;;7.05;77.79
73860;BME280;62197;51.632;13.700;2024-03-25T09:52:39;99238.25;;;7.02;78.16
73860;BME280;62197;51.632;13.700;2024-03-25T09:55:05;99246.09;;;6.92;78.08
73860;BME280;62197;51.632;13.700;2024-03-25T09:57:30;99237.28;;;6.74;77.68
73860;BME280;62197;51.632;13.700;2024-03-25T09:59:55;99239.31;;;6.60;77.32
73860;BME280;62197;51.632;13.700;2024-03-25T10:02:21;99244.28;;;6.63;79.39
73860;BME280;62197;51.632;13.700;2024-03-25T10:04:51;99244.28;;;6.63;78.35
73860;BME280;62197;51.632;13.700;2024-03-25T10:07:23;99245.13;;;6.74;77.93
73860;BME280;62197;51.632;13.700;2024-03-25T10:09:49;99243.03;;;6.68;78.48
73860;BME280;62197;51.632;13.700;2024-03-25T10:12:15;99248.81;;;6.81;78.53
73860;BME280;62197;51.632;13.700;2024-03-25T10:14:40;99246.66;;;7.05;78.26
73860;BME280;62197;51.632;13.700;2024-03-25T10:17:06;99244.00;;;6.86;78.43
73860;BME280;62197;51.632;13.700;2024-03-25T10:19:32;99248.44;;;6.95;78.53
73860;BME280;62197;51.632;13.700;2024-03-25T10:22:06;99249.53;;;6.73;77.82
73860;BME280;62197;51.632;13.700;2024-03-25T10:24:42;99249.78;;;6.80;78.27
73860;BME280;62197;51.632;13.700;2024-03-25T10:27:25;99245.09;;;6.64;77.73
73860;BME280;62197;51.632;13.700;2024-03-25T10:29:54;99259.84;;;6.75;77.14
73860;BME280;62197;51.632;13.700;2024-03-25T10:32:23;99260.97;;;7.01;77.65
73860;BME280;62197;51.632;13.700;2024-03-25T10:34:53;99257.91;;;7.44;75.09
73860;BME280;62197;51.632;13.700;2024-03-25T10:37:19;99262.09;;;7.84;74.26
73860;BME280;62197;51.632;13.700;2024-03-25T10:39:48;99259.41;;;7.56;73.73
73860;BME280;62197;51.632;13.700;2024-03-25T10:42:18;99267.66;;;7.71;73.08
73860;BME280;62197;51.632;13.700;2024-03-25T10:44:44;99259.00;;;7.61;72.28
73860;BME280;62197;51.632;13.700;2024-03-25T10:47:11;99256.22;;;7.72;73.45
73860;BME280;62197;51.632;13.700;2024-03-25T10:49:51;99255.53;;;7.80;72.53
73860;BME280;62197;51.632;13.700;2024-03-25T10:52:21;99246.06;;;8.06;69.92
73860;BME280;62197;51.632;13.700;2024-03-25T10:54:47;99246.09;;;7.96;70.54
73860;BME280;62197;51.632;13.700;2024-03-25T10:57:13;99250.25;;;7.89;72.55
73860;BME280;62197;51.632;13.700;2024-03-25T10:59:40;99253.44;;;7.83;71.78
73860;BME280;62197;51.632;13.700;2024-03-25T11:02:07;99257.75;;;7.75;72.32
73860;BME280;62197;51.632;13.700;2024-03-25T11:04:33;99258.28;;;8.25;71.44
73860;BME280;62197;51.632;13.700;2024-03-25T11:07:12;99251.81;;;8.19;70.43
73860;BME280;62197;51.632;13.700;2024-03-25T11:09:38;99254.44;;;7.73;71.30
73860;BME280;62197;51.632;13.700;2024-03-25T11:12:04;99254.00;;;8.24;70.74
73860;BME280;62197;51.632;13.700;2024-03-25T11:14:29;99251.09;;;8.27;71.37
73860;BME280;62197;51.632;13.700;2024-03-25T11:16:57;99259.09;;;8.25;70.09
73860;BME280;62197;51.632;13.700;2024-03-25T11:19:26;99253.41;;;8.30;69.92
73860;BME280;62197;51.632;13.700;2024-03-25T11:21:52;99258.00;;;8.18;68.68
73860;BME280;62197;51.632;13.700;2024-03-25T11:24:29;99248.91;;;8.50;68.80
73860;BME280;62197;51.632;13.700;2024-03-25T11:26:56;99256.63;;;9.14;66.26
73860;BME280;62197;51.632;13.700;2024-03-25T11:29:21;99254.91;;;9.05;65.46
73860;BME280;62197;51.632;13.700;2024-03-25T11:31:49;99253.78;;;9.25;66.16
73860;BME280;62197;51.632;13.700;2024-03-25T11:34:14;99256.69;;;8.69;66.20
73860;BME280;62197;51.632;13.700;2024-03-25T11:36:39;99253.25;;;8.69;64.76
73860;BME280;62197;51.632;13.700;2024-03-25T11:39:05;99250.75;;;8.85;64.13
73860;BME280;62197;51.632;13.700;2024-03-25T11:41:43;99243.47;;;9.50;61.60
73860;BME280;62197;51.632;13.700;2024-03-25T11:44:09;99250.88;;;9.72;60.31
73860;BME280;62197;51.632;13.700;2024-03-25T11:46:39;99244.78;;;9.98;59.40
73860;BME280;62197;51.632;13.700;2024-03-25T11:49:11;99239.25;;;9.57;61.09
73860;BME280;62197;51.632;13.700;2024-03-25T11:51:37;99248.25;;;9.11;60.22
73860;BME280;62197;51.632;13.700;2024-03-25T11:54:06;99254.41;;;8.56;62.84
73860;BME280;62197;51.632;13.700;2024-03-25T11:56:31;99247.84;;;8.88;61.87
73860;BME280;62197;51.632;13.700;2024-03-25T11:58:58;99259.84;;;8.90;61.46
73860;BME280;62197;51.632;13.700;2024-03-25T12:01:24;99246.84;;;9.60;59.22
73860;BME280;62197;51.632;13.700;2024-03-25T12:03:49;99244.13;;;9.70;58.23
73860;BME280;62197;51.632;13.700;2024-03-25T12:06:15;99239.34;;;9.47;60.06
73860;BME280;62197;51.632;13.700;2024-03-25T12:08:40;99245.09;;;9.07;60.45
73860;BME280;62197;51.632;13.700;2024-03-25T12:11:25;99246.06;;;9.06;60.37
73860;BME280;62197;51.632;13.700;2024-03-25T12:13:51;99243.22;;;9.17;60.48
73860;BME280;62197;51.632;13.700;2024-03-25T12:16:16;99248.78;;;9.32;60.86
73860;BME280;62197;51.632;13.700;2024-03-25T12:18:42;99235.50;;;9.34;59.25
73860;BME280;62197;51.632;13.700;2024-03-25T12:21:07;99235.91;;;9.99;59.13
73860;BME280;62197;51.632;13.700;2024-03-25T12:23:33;99241.44;;;9.61;58.92
73860;BME280;62197;51.632;13.700;2024-03-25T12:26:02;99236.34;;;9.86;56.25
73860;BME280;62197;51.632;13.700;2024-03-25T12:28:31;99242.50;;;10.03;56.20
73860;BME280;62197;51.632;13.700;2024-03-25T12:30:56;99235.81;;;9.56;57.40
73860;BME280;62197;51.632;13.700;2024-03-25T12:33:22;99239.69;;;9.70;58.32
73860;BME280;62197;51.632;13.700;2024-03-25T12:35:51;99247.66;;;9.60;56.47
73860;BME280;62197;51.632;13.700;2024-03-25T12:38:26;99253.41;;;9.20;56.18
73860;BME280;62197;51.632;13.700;2024-03-25T12:41:03;99247.94;;;8.96;56.99
73860;BME280;62197;51.632;13.700;2024-03-25T12:43:31;99250.50;;;9.06;56.16
73860;BME280;62197;51.632;13.700;2024-03-25T12:45:58;99258.19;;;8.72;56.04
73860;BME280;62197;51.632;13.700;2024-03-25T12:48:24;99249.41;;;8.36;56.52
73860;BME280;62197;51.632;13.700;2024-03-25T12:50:49;99247.38;;;8.57;56.58
73860;BME280;62197;51.632;13.700;2024-03-25T12:53:17;99262.13;;;8.58;56.15